createdAt,value
2022-08-20T00:01:03.185Z,2.20
2022-08-20T00:03:36.201Z,1.55
2022-08-20T00:06:06.936Z,1.90
2022-08-20T00:08:33.829Z,2.00
2022-08-20T00:11:01.063Z,2.00
2022-08-20T00:13:38.971Z,1.80
2022-08-20T00:16:06.725Z,1.92
2022-08-20T00:18:33.681Z,1.83
2022-08-20T00:21:01.138Z,1.63
2022-08-20T00:23:28.076Z,2.10
2022-08-20T00:25:54.974Z,1.70
2022-08-20T00:28:21.974Z,1.83
2022-08-20T00:30:48.854Z,1.83
2022-08-20T00:33:18.070Z,2.00
2022-08-20T00:35:48.761Z,1.95
2022-08-20T00:38:15.774Z,1.65
2022-08-20T00:40:45.789Z,1.80
2022-08-20T00:43:38.917Z,2.00
2022-08-20T00:46:11.906Z,2.40
2022-08-20T00:48:40.890Z,1.75
2022-08-20T00:51:16.837Z,1.70
2022-08-20T00:53:43.776Z,1.60
2022-08-20T00:56:11.026Z,2.15
2022-08-20T00:58:37.978Z,1.88
2022-08-20T01:01:05.663Z,1.80
2022-08-20T01:03:33.207Z,2.20
2022-08-20T01:06:00.302Z,1.90
2022-08-20T01:08:27.150Z,1.80
2022-08-20T01:11:06.758Z,2.00
2022-08-20T01:13:34.010Z,1.70
2022-08-20T01:16:01.461Z,1.60
2022-08-20T01:18:28.287Z,1.95
2022-08-20T01:21:00.140Z,1.60
2022-08-20T01:24:17.631Z,1.85
2022-08-20T01:26:44.827Z,1.83
2022-08-20T01:29:23.909Z,1.90
2022-08-20T01:31:51.056Z,1.60
2022-08-20T01:34:19.306Z,1.92
2022-08-20T01:36:48.349Z,1.60
2022-08-20T01:39:17.761Z,1.73
2022-08-20T01:41:45.673Z,1.92
2022-08-20T01:44:16.904Z,1.90
2022-08-20T01:46:46.674Z,1.92
2022-08-20T01:49:21.077Z,1.90
2022-08-20T01:51:51.575Z,1.73
2022-08-20T01:54:18.450Z,2.00
2022-08-20T01:57:15.579Z,2.20
2022-08-20T01:59:42.702Z,2.03
2022-08-20T02:02:10.055Z,1.85
2022-08-20T02:04:37.026Z,1.80
2022-08-20T02:07:04.953Z,1.85
2022-08-20T02:09:34.950Z,1.98
2022-08-20T02:12:03.223Z,1.80
2022-08-20T02:14:30.158Z,1.77
2022-08-20T02:16:58.446Z,1.75
2022-08-20T02:19:33.006Z,1.60
2022-08-20T02:22:02.326Z,1.90
2022-08-20T02:24:30.035Z,2.08
2022-08-20T02:26:56.894Z,1.60
2022-08-20T02:29:23.959Z,1.85
2022-08-20T02:32:31.178Z,1.80
2022-08-20T02:34:38.067Z,1.88
2022-08-20T02:37:05.937Z,1.90
2022-08-20T02:39:33.373Z,1.90
2022-08-20T02:42:02.785Z,1.85
2022-08-20T02:44:30.451Z,1.63
2022-08-20T02:46:57.261Z,2.00
2022-08-20T02:49:24.174Z,1.90
2022-08-20T02:51:51.099Z,2.42
2022-08-20T02:54:17.997Z,1.80
2022-08-20T02:56:44.943Z,1.83
2022-08-20T02:59:12.539Z,1.77
2022-08-20T03:01:46.402Z,1.92
2022-08-20T03:04:13.241Z,2.03
2022-08-20T03:06:40.071Z,1.70
2022-08-20T03:09:08.928Z,1.77
2022-08-20T03:11:35.898Z,1.95
2022-08-20T03:14:02.819Z,1.90
2022-08-20T03:16:29.749Z,2.08
2022-08-20T03:18:57.298Z,1.85
2022-08-20T03:21:24.138Z,1.70
2022-08-20T03:23:51.042Z,2.20
2022-08-20T03:26:17.885Z,1.90
2022-08-20T03:28:44.734Z,1.92
2022-08-20T03:31:12.599Z,1.80
2022-08-20T03:33:48.907Z,1.77
2022-08-20T03:36:28.805Z,2.05
2022-08-20T03:39:00.531Z,1.65
2022-08-20T03:41:28.990Z,1.90
2022-08-20T03:43:55.997Z,1.60
2022-08-20T03:46:23.793Z,1.65
2022-08-20T03:48:56.444Z,2.30
2022-08-20T03:51:28.691Z,1.90
2022-08-20T03:53:55.601Z,2.08
2022-08-20T03:56:22.755Z,1.92
2022-08-20T03:58:49.621Z,1.73
2022-08-20T04:01:45.079Z,2.03
2022-08-20T04:04:03.613Z,2.08
2022-08-20T04:06:30.944Z,1.70
2022-08-20T04:08:57.882Z,1.98
2022-08-20T04:11:24.758Z,1.70
2022-08-20T04:13:51.822Z,2.00
2022-08-20T04:16:19.319Z,1.50
2022-08-20T04:18:56.060Z,1.80
2022-08-20T04:21:32.990Z,1.80
2022-08-20T04:24:01.145Z,1.83
2022-08-20T04:26:28.220Z,1.70
2022-08-20T04:28:55.554Z,2.42
2022-08-20T04:31:25.307Z,2.30
2022-08-20T04:33:52.612Z,1.98
2022-08-20T04:36:19.690Z,1.90
2022-08-20T04:38:48.077Z,2.22
2022-08-20T04:41:23.011Z,2.20
2022-08-20T04:43:51.859Z,1.77
2022-08-20T04:46:19.310Z,1.92
2022-08-20T04:48:48.498Z,1.73
2022-08-20T04:51:16.114Z,2.20
2022-08-20T04:53:43.178Z,2.47
2022-08-20T04:56:10.022Z,2.08
2022-08-20T04:58:38.247Z,1.70
2022-08-20T05:01:07.863Z,1.67
2022-08-20T05:03:36.023Z,1.98
2022-08-20T05:06:03.641Z,1.65
2022-08-20T05:08:30.949Z,1.73
2022-08-20T05:11:15.505Z,1.90
2022-08-20T05:13:44.994Z,1.85
2022-08-20T05:16:11.890Z,1.83
2022-08-20T05:18:38.746Z,1.83
2022-08-20T05:21:06.118Z,2.10
2022-08-20T05:23:37.481Z,1.63
2022-08-20T05:26:09.052Z,1.90
2022-08-20T05:28:36.898Z,1.80
2022-08-20T05:31:20.546Z,1.90
2022-08-20T05:33:50.915Z,1.58
2022-08-20T05:36:17.789Z,2.03
2022-08-20T05:38:49.615Z,1.75
2022-08-20T05:41:27.512Z,2.03
2022-08-20T05:43:56.926Z,1.80
2022-08-20T05:46:23.747Z,2.20
2022-08-20T05:48:50.684Z,1.73
2022-08-20T05:51:17.625Z,1.90
2022-08-20T05:53:44.497Z,2.10
2022-08-20T05:56:11.477Z,2.10
2022-08-20T05:58:38.351Z,2.08
2022-08-20T06:01:05.425Z,2.03
2022-08-20T06:03:51.189Z,2.25
2022-08-20T06:06:32.208Z,2.00
2022-08-20T06:09:05.010Z,1.98
2022-08-20T06:11:36.488Z,1.90
2022-08-20T06:14:04.177Z,1.83
2022-08-20T06:16:31.134Z,1.90
2022-08-20T06:18:58.570Z,2.10
2022-08-20T06:21:26.065Z,2.10
2022-08-20T06:24:00.324Z,2.03
2022-08-20T06:26:29.905Z,2.10
2022-08-20T06:28:59.169Z,1.88
2022-08-20T06:31:27.418Z,1.88
2022-08-20T06:33:54.658Z,1.90
2022-08-20T06:36:21.546Z,2.00
2022-08-20T06:38:48.697Z,2.17
2022-08-20T06:41:16.512Z,1.80
2022-08-20T06:43:43.363Z,2.63
2022-08-20T06:46:10.861Z,2.22
2022-08-20T06:48:38.157Z,1.90
2022-08-20T06:51:06.746Z,2.25
2022-08-20T06:53:33.627Z,2.00
2022-08-20T06:56:00.530Z,2.10
2022-08-20T06:58:37.075Z,2.42
2022-08-20T07:01:09.355Z,1.98
2022-08-20T07:03:38.464Z,1.80
2022-08-20T07:06:05.641Z,2.03
2022-08-20T07:08:32.622Z,1.95
2022-08-20T07:10:59.763Z,1.98
2022-08-20T07:13:26.805Z,2.13
2022-08-20T07:15:54.350Z,1.58
2022-08-20T07:18:28.424Z,2.17
2022-08-20T07:20:57.008Z,2.15
2022-08-20T07:23:24.885Z,1.90
2022-08-20T07:25:52.805Z,1.95
2022-08-20T07:28:22.338Z,1.80
2022-08-20T07:31:12.247Z,1.90
2022-08-20T07:33:41.311Z,2.58
2022-08-20T07:36:08.479Z,1.95
2022-08-20T07:38:35.802Z,1.88
2022-08-20T07:41:03.583Z,1.90
2022-08-20T07:43:30.711Z,2.03
2022-08-20T07:46:00.747Z,2.47
2022-08-20T07:48:31.858Z,1.90
2022-08-20T07:51:00.961Z,2.00
2022-08-20T07:53:31.144Z,1.95
2022-08-20T07:56:02.747Z,2.10
2022-08-20T07:58:33.128Z,1.63
2022-08-20T08:01:00.796Z,2.15
2022-08-20T08:03:39.923Z,2.03
2022-08-20T08:06:17.278Z,2.00
2022-08-20T08:09:03.026Z,2.10
2022-08-20T08:11:31.339Z,2.03
2022-08-20T08:13:58.587Z,2.00
2022-08-20T08:16:25.541Z,1.70
2022-08-20T08:18:56.422Z,1.88
2022-08-20T08:21:23.703Z,1.88
2022-08-20T08:23:50.795Z,1.80
2022-08-20T08:26:18.958Z,1.73
2022-08-20T08:28:46.404Z,1.50
2022-08-20T08:31:13.592Z,1.48
2022-08-20T08:33:40.811Z,1.70
2022-08-20T08:36:12.364Z,1.63
2022-08-20T08:38:42.964Z,1.40
2022-08-20T08:41:26.589Z,1.60
2022-08-20T08:43:54.005Z,1.75
2022-08-20T08:46:24.270Z,1.50
2022-08-20T08:48:53.459Z,1.52
2022-08-20T08:51:37.987Z,1.45
2022-08-20T08:54:07.192Z,1.40
2022-08-20T08:56:34.437Z,1.50
2022-08-20T08:59:05.082Z,1.50
2022-08-20T09:01:53.996Z,1.73
2022-08-20T09:04:21.999Z,1.30
2022-08-20T09:06:53.517Z,1.60
2022-08-20T09:09:22.989Z,1.55
2022-08-20T09:11:53.232Z,1.50
2022-08-20T09:14:20.841Z,1.95
2022-08-20T09:16:52.761Z,1.52
2022-08-20T09:19:21.150Z,1.85
2022-08-20T09:21:48.185Z,1.48
2022-08-20T09:24:15.119Z,1.42
2022-08-20T09:26:41.954Z,1.35
2022-08-20T09:29:09.799Z,1.30
2022-08-20T09:31:37.361Z,1.90
2022-08-20T09:34:05.190Z,1.50
2022-08-20T09:36:32.948Z,1.40
2022-08-20T09:39:00.801Z,1.40
2022-08-20T09:41:30.549Z,1.80
2022-08-20T09:43:57.481Z,1.60
2022-08-20T09:46:27.223Z,1.40
2022-08-20T09:48:55.268Z,1.50
2022-08-20T09:51:22.419Z,1.65
2022-08-20T09:53:49.269Z,1.58
2022-08-20T09:56:16.222Z,1.98
2022-08-20T09:58:49.034Z,1.60
2022-08-20T10:01:17.263Z,1.50
2022-08-20T10:03:44.917Z,1.60
2022-08-20T10:06:14.698Z,1.58
2022-08-20T10:08:41.495Z,2.20
2022-08-20T10:11:08.347Z,1.52
2022-08-20T10:13:35.137Z,1.80
2022-08-20T10:16:02.129Z,1.58
2022-08-20T10:18:28.929Z,1.60
2022-08-20T10:20:55.777Z,1.50
2022-08-20T10:23:22.585Z,1.50
2022-08-20T10:25:49.454Z,1.50
2022-08-20T10:28:18.923Z,1.50
2022-08-20T10:30:46.929Z,2.03
2022-08-20T10:33:13.723Z,1.80
2022-08-20T10:35:40.599Z,1.67
2022-08-20T10:38:07.382Z,1.40
2022-08-20T10:40:34.224Z,1.58
2022-08-20T10:43:01.003Z,1.60
2022-08-20T10:45:27.843Z,1.52
2022-08-20T10:47:54.657Z,1.88
2022-08-20T10:50:21.590Z,1.50
2022-08-20T10:52:48.591Z,1.50
2022-08-20T10:55:15.626Z,1.83
2022-08-20T10:57:43.416Z,1.70
2022-08-20T11:00:14.204Z,1.63
2022-08-20T11:02:41.119Z,1.80
2022-08-20T11:05:08.196Z,1.70
2022-08-20T11:07:55.228Z,1.90
2022-08-20T11:10:24.621Z,1.48
2022-08-20T11:12:51.469Z,1.63
2022-08-20T11:15:18.460Z,1.70
2022-08-20T11:17:45.837Z,1.60
2022-08-20T11:20:13.897Z,1.60
2022-08-20T11:22:40.694Z,1.80
2022-08-20T11:25:08.138Z,1.90
2022-08-20T11:27:37.046Z,1.80
2022-08-20T11:30:04.318Z,1.83
2022-08-20T11:32:31.166Z,1.45
2022-08-20T11:34:58.016Z,1.65
2022-08-20T11:37:25.228Z,1.80
2022-08-20T11:39:52.124Z,1.80
2022-08-20T11:42:19.040Z,1.60
2022-08-20T11:44:45.869Z,1.80
2022-08-20T11:47:23.959Z,1.58
2022-08-20T11:50:01.826Z,1.73
2022-08-20T11:52:29.256Z,1.58
2022-08-20T11:54:56.561Z,1.58
2022-08-20T11:57:25.462Z,1.63
2022-08-20T11:59:53.526Z,2.00
2022-08-20T12:02:20.601Z,1.67
2022-08-20T12:04:47.746Z,1.42
2022-08-20T12:07:16.759Z,1.60
2022-08-20T12:09:50.997Z,1.55
2022-08-20T12:12:19.456Z,1.50
2022-08-20T12:14:46.335Z,1.63
2022-08-20T12:17:21.247Z,1.77
2022-08-20T12:19:48.249Z,2.35
2022-08-20T12:22:24.756Z,2.10
2022-08-20T12:24:56.014Z,1.80
2022-08-20T12:27:28.702Z,1.50
2022-08-20T12:29:56.972Z,1.40
2022-08-20T12:32:25.710Z,1.65
2022-08-20T12:34:52.695Z,1.52
2022-08-20T12:37:21.730Z,1.40
2022-08-20T12:39:50.719Z,1.40
2022-08-20T12:42:17.902Z,2.10
2022-08-20T12:44:44.833Z,1.75
2022-08-20T12:47:13.875Z,1.90
2022-08-20T12:49:45.745Z,1.50
2022-08-20T12:54:39.649Z,1.50
2022-08-20T12:57:07.963Z,1.60
2022-08-20T12:59:34.995Z,1.40
2022-08-20T13:02:14.062Z,1.60
2022-08-20T13:04:42.602Z,1.40
2022-08-20T13:07:11.552Z,1.55
2022-08-20T13:09:38.663Z,1.50
2022-08-20T13:12:08.006Z,1.48
2022-08-20T13:14:35.502Z,1.40
2022-08-20T13:17:02.651Z,1.50
2022-08-20T13:19:30.100Z,1.50
2022-08-20T13:21:57.046Z,1.45
2022-08-20T13:24:23.942Z,1.40
2022-08-20T13:26:50.882Z,1.30
2022-08-20T13:29:18.029Z,1.58
2022-08-20T13:31:44.858Z,1.30
2022-08-20T13:34:11.895Z,1.58
2022-08-20T13:36:38.844Z,1.48
2022-08-20T13:39:06.423Z,1.70
2022-08-20T13:41:33.523Z,1.75
2022-08-20T13:44:00.489Z,1.50
2022-08-20T13:46:27.407Z,1.42
2022-08-20T13:48:54.208Z,1.60
2022-08-20T13:51:21.630Z,1.23
2022-08-20T13:53:48.671Z,1.60
2022-08-20T13:56:15.555Z,1.50
2022-08-20T13:58:42.369Z,1.33
2022-08-20T14:01:09.278Z,1.60
2022-08-20T14:03:36.118Z,1.23
2022-08-20T14:06:05.851Z,1.40
2022-08-20T14:08:32.699Z,1.20
2022-08-20T14:11:00.000Z,1.58
2022-08-20T14:13:27.096Z,1.40
2022-08-20T14:15:54.347Z,1.30
2022-08-20T14:18:21.319Z,1.80
2022-08-20T14:20:48.211Z,1.58
2022-08-20T14:23:15.151Z,1.40
2022-08-20T14:25:43.637Z,1.45
2022-08-20T14:28:15.518Z,1.50
2022-08-20T14:30:45.512Z,1.50
2022-08-20T14:33:15.826Z,1.30
2022-08-20T14:35:42.775Z,1.58
2022-08-20T14:38:09.650Z,1.50
2022-08-20T14:40:36.633Z,1.67
2022-08-20T14:43:03.622Z,1.70
2022-08-20T14:45:30.695Z,1.60
2022-08-20T14:47:57.878Z,2.30
2022-08-20T14:50:30.847Z,1.90
2022-08-20T14:52:58.042Z,1.40
2022-08-20T14:55:27.012Z,2.20
2022-08-20T14:57:54.287Z,1.75
2022-08-20T15:00:24.152Z,1.73
2022-08-20T15:02:51.092Z,1.85
2022-08-20T15:05:18.091Z,1.92
2022-08-20T15:07:49.580Z,1.67
2022-08-20T15:10:21.818Z,1.40
2022-08-20T15:12:48.723Z,1.50
2022-08-20T15:15:16.264Z,1.65
2022-08-20T15:17:45.322Z,2.00
2022-08-20T15:20:20.758Z,1.65
2022-08-20T15:22:48.266Z,1.77
2022-08-20T15:25:16.883Z,1.75
2022-08-20T15:27:44.850Z,2.05
2022-08-20T15:30:14.227Z,1.60
2022-08-20T15:32:41.222Z,1.50
2022-08-20T15:35:11.148Z,1.52
2022-08-20T15:37:46.113Z,1.60
2022-08-20T15:40:16.005Z,1.60
2022-08-20T15:42:43.650Z,1.95
2022-08-20T15:45:14.142Z,1.65
2022-08-20T15:48:12.314Z,1.42
2022-08-20T15:50:48.046Z,1.40
2022-08-20T15:53:24.859Z,1.73
2022-08-20T15:56:03.751Z,1.70
2022-08-20T15:58:45.393Z,1.55
2022-08-20T16:01:51.210Z,2.00
2022-08-20T16:04:40.233Z,2.00
2022-08-20T16:07:13.446Z,1.80
2022-08-20T16:10:18.017Z,1.70
2022-08-20T16:12:48.721Z,1.90
2022-08-20T16:15:21.006Z,1.65
2022-08-20T16:17:51.581Z,1.92
2022-08-20T16:20:35.964Z,1.70
2022-08-20T16:23:03.928Z,1.50
2022-08-20T16:25:34.405Z,1.95
2022-08-20T16:28:04.043Z,1.75
2022-08-20T16:30:36.567Z,1.67
2022-08-20T16:33:14.278Z,2.03
2022-08-20T16:35:51.791Z,2.42
2022-08-20T16:38:25.421Z,2.00
2022-08-20T16:40:57.014Z,2.15
2022-08-20T16:43:32.478Z,2.42
2022-08-20T16:46:03.130Z,1.70
2022-08-20T16:48:36.181Z,1.70
2022-08-20T16:51:08.841Z,2.25
2022-08-20T16:53:35.734Z,2.03
2022-08-20T16:56:02.680Z,2.00
2022-08-20T16:58:29.494Z,1.90
2022-08-20T17:01:10.852Z,2.05
2022-08-20T17:03:39.519Z,2.25
2022-08-20T17:06:27.210Z,2.35
2022-08-20T17:08:55.093Z,2.55
2022-08-20T17:11:32.948Z,2.00
2022-08-20T17:14:07.406Z,2.80
2022-08-20T17:16:39.853Z,2.00
2022-08-20T17:19:09.115Z,1.70
2022-08-20T17:21:38.130Z,2.45
2022-08-20T17:24:17.149Z,1.85
2022-08-20T17:26:50.132Z,2.15
2022-08-20T17:29:21.393Z,2.10
2022-08-20T17:31:50.758Z,2.08
2022-08-20T17:34:18.586Z,2.10
2022-08-20T17:36:50.962Z,2.17
2022-08-20T17:39:18.892Z,2.55
2022-08-20T17:41:50.541Z,2.08
2022-08-20T17:46:49.097Z,2.42
2022-08-20T17:49:19.891Z,2.08
2022-08-20T17:51:49.005Z,2.00
2022-08-20T17:54:36.006Z,2.10
2022-08-20T17:57:10.158Z,1.92
2022-08-20T18:00:00.002Z,2.08
2022-08-20T18:02:31.927Z,1.83
2022-08-20T18:04:58.894Z,1.95
2022-08-20T18:07:38.459Z,1.65
2022-08-20T18:10:23.811Z,2.00
2022-08-20T18:12:58.955Z,1.90
2022-08-20T18:15:30.217Z,1.95
2022-08-20T18:18:50.894Z,2.17
2022-08-20T18:21:36.361Z,1.90
2022-08-20T18:24:12.208Z,1.90
2022-08-20T18:26:39.078Z,1.90
2022-08-20T18:29:16.345Z,2.20
2022-08-20T18:31:50.127Z,2.30
2022-08-20T18:34:40.960Z,2.20
2022-08-20T18:37:25.453Z,2.15
2022-08-20T18:39:52.353Z,2.20
2022-08-20T18:42:24.770Z,2.75
2022-08-20T18:44:52.664Z,3.58
2022-08-20T18:47:33.826Z,2.97
2022-08-20T18:50:15.664Z,2.40
2022-08-20T18:52:52.026Z,2.60
2022-08-20T18:55:32.399Z,2.70
2022-08-20T18:58:04.433Z,2.38
2022-08-20T19:00:36.407Z,2.20
2022-08-20T19:03:35.929Z,2.00
2022-08-20T19:06:05.909Z,2.17
2022-08-20T19:08:50.634Z,2.50
2022-08-20T19:11:28.172Z,2.92
2022-08-20T19:14:32.979Z,3.28
2022-08-20T19:17:07.456Z,2.80
2022-08-20T19:19:34.563Z,2.05
2022-08-20T19:22:01.391Z,2.90
2022-08-20T19:24:30.462Z,2.20
2022-08-20T19:27:02.160Z,1.98
2022-08-20T19:29:34.309Z,2.08
2022-08-20T19:32:03.270Z,2.10
2022-08-20T19:34:31.838Z,2.45
2022-08-20T19:37:08.933Z,2.20
2022-08-20T19:39:49.053Z,2.10
2022-08-20T19:42:25.394Z,2.03
2022-08-20T19:45:01.466Z,1.95
2022-08-20T19:47:37.645Z,2.20
2022-08-20T19:50:14.621Z,2.53
2022-08-20T19:53:13.862Z,2.22
2022-08-20T19:55:40.830Z,2.30
2022-08-20T19:58:26.201Z,2.15
2022-08-20T20:00:54.302Z,2.67
2022-08-20T20:03:28.232Z,2.10
2022-08-20T20:05:59.053Z,2.55
2022-08-20T20:08:49.166Z,2.35
2022-08-20T20:11:20.125Z,2.20
2022-08-20T20:13:47.027Z,2.28
2022-08-20T20:16:14.154Z,2.60
2022-08-20T20:18:41.179Z,2.10
2022-08-20T20:21:17.780Z,2.40
2022-08-20T20:23:56.470Z,2.50
2022-08-20T20:26:23.571Z,2.33
2022-08-20T20:28:53.527Z,2.58
2022-08-20T20:31:31.218Z,2.30
2022-08-20T20:34:00.214Z,2.45
2022-08-20T20:36:32.041Z,2.17
2022-08-20T20:39:00.934Z,2.22
2022-08-20T20:41:28.841Z,2.50
2022-08-20T20:44:07.331Z,2.20
2022-08-20T20:46:35.417Z,2.40
2022-08-20T20:49:23.595Z,2.47
2022-08-20T20:52:05.484Z,2.60
2022-08-20T20:54:43.940Z,2.20
2022-08-20T20:57:38.126Z,2.40
2022-08-20T21:00:12.998Z,2.20
2022-08-20T21:02:40.170Z,2.30
2022-08-20T21:05:07.360Z,2.65
2022-08-20T21:07:34.215Z,2.70
2022-08-20T21:10:01.096Z,2.47
2022-08-20T21:12:27.999Z,3.03
2022-08-20T21:14:54.935Z,2.63
2022-08-20T21:17:22.608Z,2.75
2022-08-20T21:19:50.497Z,2.72
2022-08-20T21:22:17.697Z,2.70
2022-08-20T21:24:45.728Z,3.00
2022-08-20T21:27:12.737Z,2.30
2022-08-20T21:29:39.797Z,2.90
2022-08-20T21:32:06.941Z,3.00
2022-08-20T21:34:33.822Z,2.85
2022-08-20T21:37:00.644Z,3.10
2022-08-20T21:39:27.581Z,2.33
2022-08-20T21:41:56.219Z,2.55
2022-08-20T21:44:26.266Z,2.60
2022-08-20T21:46:54.136Z,2.53
2022-08-20T21:49:22.358Z,2.70
2022-08-20T21:51:49.403Z,2.65
2022-08-20T21:54:16.485Z,2.80
2022-08-20T21:56:43.399Z,2.50
2022-08-20T21:59:10.279Z,2.83
2022-08-20T22:01:38.244Z,2.70
2022-08-20T22:04:06.153Z,3.08
2022-08-20T22:06:33.186Z,3.15
2022-08-20T22:09:00.048Z,2.80
2022-08-20T22:11:27.042Z,2.97
2022-08-20T22:13:53.940Z,2.95
2022-08-20T22:16:21.794Z,2.72
2022-08-20T22:18:49.094Z,3.65
2022-08-20T22:21:24.344Z,2.75
2022-08-20T22:23:51.518Z,2.25
2022-08-20T22:26:18.758Z,2.53
2022-08-20T22:28:45.637Z,3.08
2022-08-20T22:31:19.464Z,4.57
2022-08-20T22:33:46.348Z,4.22
2022-08-20T22:36:13.186Z,3.38
2022-08-20T22:38:40.007Z,3.47
2022-08-20T22:41:09.762Z,3.20
2022-08-20T22:43:37.041Z,3.13
2022-08-20T22:46:14.881Z,3.05
2022-08-20T22:48:42.499Z,2.72
2022-08-20T22:51:10.231Z,2.95
2022-08-20T22:53:37.105Z,3.13
2022-08-20T22:56:04.410Z,2.92
2022-08-20T22:58:31.557Z,3.63
2022-08-20T23:00:58.534Z,3.13
2022-08-20T23:03:39.803Z,2.70
2022-08-20T23:06:07.437Z,2.75
2022-08-20T23:08:34.417Z,2.70
2022-08-20T23:11:01.426Z,2.85
2022-08-20T23:13:28.299Z,3.10
2022-08-20T23:15:55.202Z,4.07
2022-08-20T23:18:22.065Z,3.13
2022-08-20T23:20:52.063Z,2.67
2022-08-20T23:23:19.138Z,3.70
2022-08-20T23:25:46.059Z,3.60
2022-08-20T23:28:12.913Z,2.95
2022-08-20T23:30:39.780Z,2.95
2022-08-20T23:33:06.635Z,2.67
2022-08-20T23:35:33.726Z,2.70
2022-08-20T23:38:00.640Z,2.67
2022-08-20T23:40:28.298Z,2.50
2022-08-20T23:42:55.419Z,2.45
2022-08-20T23:45:22.395Z,2.30
2022-08-20T23:47:49.932Z,2.72
2022-08-20T23:50:18.573Z,3.22
2022-08-20T23:52:45.426Z,3.05
2022-08-20T23:55:12.261Z,2.95
2022-08-20T23:57:40.036Z,2.70
